Time;durP1;ratioP1;P1;durP2;ratioP2;P2;SDS_P1;SDS_P2;PMS_P1;PMS_P2;Temp;Humidity;BMP_temperature;BMP_pressure;BME280_temperature;BME280_humidity;BME280_pressure;Samples;Min_cycle;Max_cycle;Signal;HPM_P1;HPM_P2
2023/09/27 00:02:14;;;;;;;57.60;54.35;;;18.30;99.90;;;;;;5030517;28;20041;-71
2023/09/27 00:04:40;;;;;;;92.63;87.38;;;18.30;99.90;;;;;;5030229;28;20491;-71
2023/09/27 00:07:07;;;;;;;60.60;57.10;;;18.20;99.90;;;;;;5030741;28;20033;-71
2023/09/27 00:09:34;;;;;;;65.90;61.90;;;18.20;99.90;;;;;;5031169;28;20048;-71
2023/09/27 00:12:05;;;;;;;76.65;72.10;;;18.20;99.90;;;;;;5029864;28;20038;-71
2023/09/27 00:14:32;;;;;;;75.10;70.97;;;18.10;99.90;;;;;;5029556;28;20045;-71
2023/09/27 00:16:58;;;;;;;70.85;67.05;;;18.10;99.90;;;;;;5029922;28;20034;-71
2023/09/27 00:19:25;;;;;;;79.60;75.45;;;18.20;99.90;;;;;;5021265;28;20029;-71
2023/09/27 00:21:51;;;;;;;72.47;68.53;;;18.20;99.90;;;;;;5031684;28;20407;-71
2023/09/27 00:24:18;;;;;;;50.13;47.20;;;18.20;99.90;;;;;;5034407;28;20026;-72
2023/09/27 00:26:44;;;;;;;45.03;42.17;;;18.20;99.90;;;;;;5034162;28;20037;-71
2023/09/27 00:29:11;;;;;;;45.67;43.03;;;18.20;99.90;;;;;;5033008;28;20075;-71
2023/09/27 00:31:37;;;;;;;44.20;41.55;;;18.10;99.90;;;;;;5024211;28;20507;-71
2023/09/27 00:34:03;;;;;;;43.80;41.17;;;18.10;99.90;;;;;;5031164;28;20048;-71
2023/09/27 00:36:29;;;;;;;50.85;47.58;;;18.10;99.90;;;;;;5034418;28;20036;-71
2023/09/27 00:38:55;;;;;;;58.17;54.92;;;18.10;99.90;;;;;;5033347;28;20037;-71
2023/09/27 00:41:22;;;;;;;59.50;55.97;;;18.10;99.90;;;;;;5032994;28;20041;-71
2023/09/27 00:43:48;;;;;;;64.22;60.63;;;18.10;99.90;;;;;;5023042;28;20045;-71
2023/09/27 00:46:15;;;;;;;86.13;81.10;;;18.00;99.90;;;;;;5032309;28;20041;-71
2023/09/27 00:48:41;;;;;;;91.97;86.57;;;18.00;99.90;;;;;;5032448;28;20503;-71
2023/09/27 00:51:07;;;;;;;75.63;71.30;;;17.90;99.90;;;;;;5031612;28;20041;-71
2023/09/27 00:53:34;;;;;;;62.20;58.70;;;17.90;99.90;;;;;;5032048;28;20053;-71
2023/09/27 00:56:01;;;;;;;64.55;60.70;;;17.90;99.90;;;;;;5031870;28;20033;-71
2023/09/27 00:58:27;;;;;;;49.83;47.08;;;17.80;99.90;;;;;;5031684;28;20053;-71
2023/09/27 01:00:53;;;;;;;49.95;47.05;;;17.90;99.90;;;;;;5027276;28;20026;-72
2023/09/27 01:03:19;;;;;;;64.55;60.85;;;17.90;99.90;;;;;;5032915;28;20044;-72
2023/09/27 01:05:45;;;;;;;61.00;57.47;;;17.90;99.90;;;;;;5034548;28;20022;-71
2023/09/27 01:08:12;;;;;;;55.10;51.97;;;17.80;99.90;;;;;;5033845;28;20041;-71
2023/09/27 01:10:38;;;;;;;50.67;47.83;;;17.70;99.90;;;;;;5033547;28;20044;-71
2023/09/27 01:13:04;;;;;;;53.55;50.22;;;17.70;99.90;;;;;;5033591;28;20052;-71
2023/09/27 01:15:31;;;;;;;61.67;58.33;;;17.70;99.90;;;;;;5031970;28;20426;-71
2023/09/27 01:17:59;;;;;;;52.00;49.08;;;17.70;99.90;;;;;;5031770;28;20029;-71
2023/09/27 01:20:26;;;;;;;49.00;46.13;;;17.60;99.90;;;;;;5034304;28;20029;-70
2023/09/27 01:22:59;;;;;;;54.03;50.80;;;17.70;99.90;;;;;;5033226;28;20467;-71
2023/09/27 01:25:27;;;;;;;55.90;52.70;;;17.60;99.90;;;;;;5033572;28;20052;-71
2023/09/27 01:27:53;;;;;;;49.70;46.75;;;17.40;99.90;;;;;;5032276;28;20038;-71
2023/09/27 01:30:19;;;;;;;59.42;56.08;;;16.90;99.90;;;;;;5030572;28;20104;-71
2023/09/27 01:32:45;;;;;;;73.70;69.20;;;16.50;99.90;;;;;;5019048;28;20034;-71
2023/09/27 01:35:11;;;;;;;67.43;63.50;;;16.40;99.90;;;;;;5032868;28;20048;-71
2023/09/27 01:37:37;;;;;;;70.40;66.43;;;16.30;99.90;;;;;;5032884;28;20029;-72
2023/09/27 01:40:09;;;;;;;38.40;36.13;;;16.40;99.90;;;;;;5034096;28;20049;-71
2023/09/27 01:42:42;;;;;;;47.72;44.85;;;16.50;99.90;;;;;;5032843;28;20045;-71
2023/09/27 01:45:09;;;;;;;57.15;53.78;;;16.70;99.90;;;;;;5030756;28;20053;-71
2023/09/27 01:47:35;;;;;;;47.38;44.47;;;16.60;99.90;;;;;;5032855;28;20507;-71
2023/09/27 01:50:02;;;;;;;49.90;46.80;;;16.30;99.90;;;;;;5031114;28;20033;-71
2023/09/27 01:52:29;;;;;;;53.97;50.85;;;16.30;99.90;;;;;;5031776;28;20117;-71
2023/09/27 01:54:55;;;;;;;60.47;56.97;;;16.40;99.90;;;;;;5032420;28;20498;-71
2023/09/27 01:57:21;;;;;;;47.35;44.50;;;16.60;99.90;;;;;;5032674;28;20029;-71
2023/09/27 01:59:47;;;;;;;44.60;41.90;;;16.70;99.90;;;;;;5032790;28;20033;-71
2023/09/27 02:02:13;;;;;;;53.72;50.45;;;16.60;99.90;;;;;;5031833;28;20044;-71
2023/09/27 02:04:39;;;;;;;50.13;47.15;;;16.50;99.90;;;;;;5033109;28;20033;-71
2023/09/27 02:07:05;;;;;;;42.90;40.22;;;16.40;99.90;;;;;;5031642;28;20037;-71
2023/09/27 02:09:32;;;;;;;40.53;38.20;;;16.40;99.90;;;;;;5033159;28;20025;-71
2023/09/27 02:11:58;;;;;;;45.70;42.83;;;16.50;99.90;;;;;;5032616;28;20049;-71
2023/09/27 02:14:24;;;;;;;52.63;49.50;;;16.70;99.90;;;;;;5032431;28;20034;-70
2023/09/27 02:16:51;;;;;;;53.92;50.75;;;16.80;99.90;;;;;;5031215;28;20053;-71
2023/09/27 02:19:17;;;;;;;41.00;38.55;;;16.90;99.90;;;;;;5020102;28;20049;-71
2023/09/27 02:21:43;;;;;;;42.97;40.17;;;17.10;99.90;;;;;;5027053;28;20037;-71
2023/09/27 02:24:09;;;;;;;41.42;38.90;;;17.20;99.90;;;;;;5032346;28;20037;-71
2023/09/27 02:26:36;;;;;;;43.08;40.55;;;17.20;99.90;;;;;;5031890;28;20038;-71
2023/09/27 02:29:02;;;;;;;46.55;43.75;;;17.20;99.90;;;;;;5031719;28;20037;-71
2023/09/27 02:31:28;;;;;;;56.92;52.90;;;17.20;99.90;;;;;;5028590;28;20046;-71
2023/09/27 02:33:54;;;;;;;49.00;45.97;;;17.20;99.90;;;;;;5032073;28;20546;-71
2023/09/27 02:36:20;;;;;;;56.67;53.15;;;17.10;99.90;;;;;;5032872;28;20044;-71
2023/09/27 02:38:47;;;;;;;50.15;47.22;;;17.10;99.90;;;;;;5029788;28;20041;-71
2023/09/27 02:41:13;;;;;;;56.95;53.42;;;17.10;99.90;;;;;;5032089;28;20046;-71
2023/09/27 02:43:40;;;;;;;54.65;51.60;;;17.20;99.90;;;;;;5032555;28;20045;-71
2023/09/27 02:46:07;;;;;;;56.47;52.80;;;17.10;99.90;;;;;;5030946;28;20034;-71
2023/09/27 02:48:33;;;;;;;72.40;68.20;;;17.10;99.90;;;;;;5031911;28;20037;-71
2023/09/27 02:50:59;;;;;;;63.45;59.85;;;17.00;99.90;;;;;;5027452;28;20047;-71
2023/09/27 02:53:25;;;;;;;84.03;79.28;;;17.10;99.90;;;;;;5030885;28;20411;-71
2023/09/27 02:55:52;;;;;;;59.13;55.80;;;17.20;99.90;;;;;;5030689;28;20036;-71
2023/09/27 02:58:18;;;;;;;64.03;60.08;;;17.20;99.90;;;;;;5032393;28;20461;-71
2023/09/27 03:00:44;;;;;;;58.70;55.28;;;17.20;99.90;;;;;;5031488;28;20503;-71
2023/09/27 03:03:13;;;;;;;56.50;53.03;;;17.10;99.90;;;;;;5032719;28;20029;-71
2023/09/27 03:05:40;;;;;;;65.35;61.78;;;17.10;99.90;;;;;;5030336;28;20049;-71
2023/09/27 03:08:07;;;;;;;63.83;60.00;;;17.10;99.90;;;;;;5032558;28;20496;-71
2023/09/27 03:10:38;;;;;;;64.22;60.35;;;17.10;99.90;;;;;;5030826;28;20041;-71
2023/09/27 03:13:04;;;;;;;69.78;65.28;;;17.00;99.90;;;;;;5032351;28;20049;-70
2023/09/27 03:15:31;;;;;;;63.28;59.58;;;17.00;99.90;;;;;;5028964;28;20041;-71
2023/09/27 03:17:57;;;;;;;63.42;59.55;;;17.00;99.90;;;;;;5030768;28;20033;-72
2023/09/27 03:20:24;;;;;;;67.93;63.92;;;16.90;99.90;;;;;;5031876;28;20504;-72
2023/09/27 03:22:50;;;;;;;53.47;50.15;;;16.90;99.90;;;;;;5029674;28;20567;-71
2023/09/27 03:25:19;;;;;;;56.38;52.67;;;16.90;99.90;;;;;;5027852;28;20030;-71
2023/09/27 03:27:46;;;;;;;56.72;53.38;;;16.90;99.90;;;;;;5032092;28;20046;-71
2023/09/27 03:30:12;;;;;;;58.63;55.08;;;16.80;99.90;;;;;;5031284;28;20048;-71
2023/09/27 03:32:38;;;;;;;63.95;60.40;;;16.90;99.90;;;;;;5022984;28;20045;-71
2023/09/27 03:35:07;;;;;;;65.30;61.60;;;16.80;99.90;;;;;;5032025;28;20044;-71
2023/09/27 03:37:34;;;;;;;61.35;57.83;;;16.80;99.90;;;;;;5029973;28;20045;-71
2023/09/27 03:40:03;;;;;;;59.58;55.92;;;16.80;99.90;;;;;;5024496;28;20460;-72
2023/09/27 03:42:29;;;;;;;58.13;54.72;;;16.70;99.90;;;;;;5029292;28;20064;-72
2023/09/27 03:44:55;;;;;;;57.38;53.97;;;16.70;99.90;;;;;;5032117;28;20036;-72
2023/09/27 03:47:22;;;;;;;55.92;52.58;;;16.70;99.90;;;;;;5030997;28;20033;-72
2023/09/27 03:49:48;;;;;;;65.80;61.85;;;16.60;99.90;;;;;;5031994;28;20033;-71
2023/09/27 03:52:14;;;;;;;64.28;60.53;;;16.60;99.90;;;;;;5031245;28;20365;-72
2023/09/27 03:54:40;;;;;;;59.95;56.38;;;16.60;99.90;;;;;;5031688;28;20048;-71
2023/09/27 03:57:06;;;;;;;69.10;64.85;;;16.50;99.90;;;;;;5037634;28;20048;-72
2023/09/27 03:59:32;;;;;;;70.60;66.80;;;16.50;99.90;;;;;;5045978;28;20044;-72
2023/09/27 04:01:59;;;;;;;55.28;51.95;;;16.60;99.90;;;;;;5034993;28;20037;-72
2023/09/27 04:04:25;;;;;;;53.33;50.25;;;16.60;99.90;;;;;;5035668;28;20046;-72
2023/09/27 04:06:51;;;;;;;53.17;49.78;;;16.60;99.90;;;;;;5035194;28;20041;-72
2023/09/27 04:09:17;;;;;;;57.45;53.65;;;16.60;99.90;;;;;;5035862;28;20037;-72
2023/09/27 04:11:44;;;;;;;53.95;50.85;;;16.50;99.90;;;;;;5035330;28;20068;-71
2023/09/27 04:14:11;;;;;;;54.67;51.33;;;16.60;99.90;;;;;;5034856;28;20057;-72
2023/09/27 04:16:37;;;;;;;64.75;61.15;;;16.60;99.90;;;;;;5034146;28;20033;-72
2023/09/27 04:19:03;;;;;;;72.13;67.90;;;16.60;99.90;;;;;;5035615;28;20400;-72
2023/09/27 04:21:30;;;;;;;54.15;50.85;;;16.60;99.90;;;;;;5034943;28;20029;-72
2023/09/27 04:23:56;;;;;;;55.58;52.55;;;16.50;99.90;;;;;;5035630;28;20062;-72
2023/09/27 04:26:25;;;;;;;52.67;49.25;;;16.10;99.90;;;;;;5035167;28;20026;-72
2023/09/27 04:28:52;;;;;;;85.10;80.05;;;16.00;99.90;;;;;;5035420;28;20013;-71
2023/09/27 04:31:18;;;;;;;67.85;64.07;;;15.80;99.90;;;;;;5034411;28;20033;-72
2023/09/27 04:33:45;;;;;;;64.55;60.80;;;15.70;99.90;;;;;;5034349;28;20499;-71
2023/09/27 04:36:17;;;;;;;52.15;49.20;;;15.60;99.90;;;;;;5034889;28;20045;-71
2023/09/27 04:38:44;;;;;;;45.25;42.42;;;15.50;99.90;;;;;;5035232;28;20045;-72
2023/09/27 04:41:11;;;;;;;52.20;48.83;;;15.40;99.90;;;;;;5034363;28;20510;-71
2023/09/27 04:43:37;;;;;;;59.97;56.50;;;15.40;99.90;;;;;;5035312;28;20029;-72
2023/09/27 04:46:04;;;;;;;85.10;80.18;;;15.50;99.90;;;;;;5042788;28;20029;-72
2023/09/27 04:48:30;;;;;;;71.32;67.28;;;15.40;99.90;;;;;;5054634;28;20051;-72
2023/09/27 04:50:59;;;;;;;60.17;56.45;;;15.30;99.90;;;;;;5053843;28;20037;-72
2023/09/27 04:53:25;;;;;;;59.00;55.55;;;15.30;99.90;;;;;;5053530;28;20041;-72
2023/09/27 04:55:52;;;;;;;49.25;46.45;;;15.20;99.90;;;;;;5053963;28;20033;-72
2023/09/27 04:58:18;;;;;;;48.47;45.50;;;15.10;99.90;;;;;;5054962;28;20021;-72
2023/09/27 05:00:45;;;;;;;48.05;45.35;;;15.00;99.90;;;;;;5053613;28;20055;-72
2023/09/27 05:03:11;;;;;;;49.47;46.33;;;15.00;99.90;;;;;;5053705;28;20041;-72
2023/09/27 05:05:37;;;;;;;47.20;44.15;;;15.10;99.90;;;;;;5054601;28;20032;-72
2023/09/27 05:08:04;;;;;;;48.72;45.80;;;15.00;99.90;;;;;;5054363;28;20036;-72
2023/09/27 05:10:30;;;;;;;62.00;58.42;;;15.00;99.90;;;;;;5053817;28;20753;-72
2023/09/27 05:12:56;;;;;;;53.20;49.47;;;15.00;99.90;;;;;;5054318;28;20040;-72
2023/09/27 05:15:22;;;;;;;47.70;44.15;;;15.00;99.90;;;;;;5053334;28;20048;-72
2023/09/27 05:17:48;;;;;;;68.28;64.07;;;15.10;99.90;;;;;;5054050;28;20029;-71
2023/09/27 05:20:15;;;;;;;48.22;45.10;;;15.20;99.90;;;;;;5053922;28;20017;-72
2023/09/27 05:22:42;;;;;;;40.40;37.55;;;15.00;99.90;;;;;;5035884;28;20037;-72
2023/09/27 05:25:09;;;;;;;44.45;41.45;;;14.90;99.90;;;;;;5053768;28;20037;-71
2023/09/27 05:27:35;;;;;;;43.15;39.72;;;14.90;99.90;;;;;;5056344;28;20033;-71
2023/09/27 05:30:02;;;;;;;40.42;37.58;;;15.00;99.90;;;;;;5053858;28;20468;-71
2023/09/27 05:32:28;;;;;;;38.28;35.13;;;15.10;99.90;;;;;;5052372;28;20037;-71
2023/09/27 05:34:54;;;;;;;38.00;35.22;;;15.00;99.90;;;;;;5053188;28;20059;-71
2023/09/27 05:37:21;;;;;;;37.42;34.92;;;15.10;99.90;;;;;;5053268;28;20036;-71
2023/09/27 05:39:47;;;;;;;37.13;34.53;;;15.20;99.90;;;;;;5053092;28;20492;-71
2023/09/27 05:42:13;;;;;;;39.70;37.10;;;15.10;99.90;;;;;;5059738;28;20029;-72
2023/09/27 05:44:39;;;;;;;39.42;36.47;;;15.00;99.90;;;;;;5053897;28;20056;-71
2023/09/27 05:47:05;;;;;;;40.95;38.08;;;15.10;99.90;;;;;;5059626;28;20033;-71
2023/09/27 05:49:31;;;;;;;43.78;40.95;;;15.10;99.90;;;;;;5053692;28;20025;-71
2023/09/27 05:51:57;;;;;;;51.53;48.03;;;15.00;99.90;;;;;;5053425;28;20463;-72
2023/09/27 05:54:23;;;;;;;42.85;39.78;;;15.10;99.90;;;;;;5053684;28;20052;-71
2023/09/27 05:56:51;;;;;;;45.30;42.40;;;15.30;99.90;;;;;;5049419;28;20678;-71
2023/09/27 05:59:18;;;;;;;39.35;36.92;;;15.40;99.90;;;;;;5067790;28;20045;-72
2023/09/27 06:01:44;;;;;;;39.30;36.40;;;15.50;99.90;;;;;;5059217;28;20503;-70
2023/09/27 06:04:10;;;;;;;38.60;36.20;;;15.40;99.90;;;;;;5053533;28;20032;-71
2023/09/27 06:06:37;;;;;;;41.42;38.78;;;15.20;99.90;;;;;;5053436;28;20517;-71
2023/09/27 06:09:09;;;;;;;37.17;34.42;;;15.20;99.90;;;;;;5053234;28;20388;-74
2023/09/27 06:11:35;;;;;;;37.90;35.65;;;15.30;99.90;;;;;;5052412;28;20044;-71
2023/09/27 06:14:01;;;;;;;41.92;39.33;;;15.40;99.90;;;;;;5053060;28;20073;-71
2023/09/27 06:16:28;;;;;;;40.03;37.03;;;15.40;99.90;;;;;;5052065;28;20037;-71
2023/09/27 06:18:55;;;;;;;39.40;37.03;;;15.30;99.90;;;;;;5052986;28;20045;-71
2023/09/27 06:21:21;;;;;;;43.70;40.85;;;15.40;99.90;;;;;;5044196;28;20041;-71
2023/09/27 06:23:47;;;;;;;41.58;38.85;;;15.20;99.90;;;;;;5052901;28;20044;-71
2023/09/27 06:26:14;;;;;;;40.83;38.30;;;15.30;99.90;;;;;;5052856;28;20037;-71
2023/09/27 06:28:40;;;;;;;41.13;38.53;;;15.40;99.90;;;;;;5052516;28;20044;-71
2023/09/27 06:31:06;;;;;;;45.38;42.58;;;15.40;99.90;;;;;;5052210;28;20037;-71
2023/09/27 06:33:39;;;;;;;40.25;37.63;;;15.50;99.90;;;;;;5052507;28;20040;-72
2023/09/27 06:36:08;;;;;;;35.70;32.80;;;15.60;99.90;;;;;;5052645;28;20468;-71
2023/09/27 06:38:34;;;;;;;47.78;44.03;;;15.70;99.90;;;;;;5052547;28;20052;-71
2023/09/27 06:41:01;;;;;;;56.92;52.60;;;15.80;99.90;;;;;;5052652;28;20044;-71
2023/09/27 06:43:29;;;;;;;56.75;52.63;;;15.90;99.90;;;;;;5043052;28;20037;-71
2023/09/27 06:45:55;;;;;;;55.90;52.45;;;15.90;99.90;;;;;;5045323;28;20041;-71
2023/09/27 06:48:23;;;;;;;48.83;45.60;;;16.00;99.90;;;;;;5053070;28;20040;-71
2023/09/27 06:50:49;;;;;;;44.80;41.58;;;16.10;99.90;;;;;;5052209;28;20037;-71
2023/09/27 06:53:16;;;;;;;42.33;39.58;;;15.90;99.90;;;;;;5052337;28;20037;-71
2023/09/27 06:55:45;;;;;;;47.92;44.50;;;15.70;99.90;;;;;;5052233;28;20071;-71
2023/09/27 06:58:13;;;;;;;51.35;48.05;;;15.70;99.90;;;;;;5051815;28;20045;-71
2023/09/27 07:00:43;;;;;;;58.50;54.58;;;15.80;99.90;;;;;;5046195;28;20037;-71
2023/09/27 07:03:09;;;;;;;54.75;50.90;;;15.90;99.90;;;;;;5032808;28;20029;-71
2023/09/27 07:05:35;;;;;;;49.33;46.00;;;15.90;99.90;;;;;;5031695;28;20078;-69
2023/09/27 07:08:01;;;;;;;48.97;45.58;;;16.10;99.90;;;;;;5032156;28;20034;-71
2023/09/27 07:10:27;;;;;;;54.13;50.50;;;16.20;99.90;;;;;;5031997;28;20108;-71
2023/09/27 07:12:54;;;;;;;46.97;43.92;;;16.30;99.90;;;;;;5030674;28;20388;-71
2023/09/27 07:15:20;;;;;;;42.63;39.80;;;16.30;99.90;;;;;;5029919;28;20037;-71
2023/09/27 07:17:47;;;;;;;48.72;45.53;;;16.40;99.90;;;;;;5027626;28;20377;-71
2023/09/27 07:20:23;;;;;;;37.90;35.42;;;16.30;99.90;;;;;;5031689;28;20085;-71
2023/09/27 07:22:56;;;;;;;42.28;39.47;;;16.30;99.90;;;;;;5032100;28;20053;-71
2023/09/27 07:25:23;;;;;;;32.30;30.20;;;16.40;99.90;;;;;;5030995;28;20518;-72
2023/09/27 07:27:50;;;;;;;28.40;26.42;;;16.60;99.90;;;;;;5032127;28;20041;-71
2023/09/27 07:30:23;;;;;;;34.70;31.75;;;16.60;99.90;;;;;;5027705;28;20037;-72
2023/09/27 07:32:50;;;;;;;33.20;30.40;;;16.50;99.90;;;;;;5031678;28;20053;-72
2023/09/27 07:35:17;;;;;;;37.85;35.15;;;16.60;99.90;;;;;;5030780;28;20033;-71
2023/09/27 07:37:44;;;;;;;26.63;24.40;;;16.60;99.90;;;;;;5031759;28;20491;-72
2023/09/27 07:40:11;;;;;;;33.05;30.77;;;16.80;99.90;;;;;;5031130;28;20068;-72
2023/09/27 07:42:39;;;;;;;26.10;24.15;;;16.80;99.90;;;;;;5028990;28;20558;-72
2023/09/27 07:45:13;;;;;;;35.70;33.28;;;16.90;99.90;;;;;;5031758;28;20124;-71
2023/09/27 07:47:39;;;;;;;29.02;26.92;;;16.90;99.90;;;;;;5030723;28;20423;-72
2023/09/27 07:50:05;;;;;;;29.92;27.38;;;16.80;99.90;;;;;;5023994;28;20044;-72
2023/09/27 07:52:31;;;;;;;26.10;23.92;;;16.80;99.90;;;;;;5030981;28;20022;-72
2023/09/27 07:54:58;;;;;;;33.13;30.65;;;16.90;99.90;;;;;;5031252;28;20476;-72
2023/09/27 07:57:24;;;;;;;35.67;32.70;;;16.80;99.90;;;;;;5031071;28;20479;-72
2023/09/27 07:59:52;;;;;;;36.97;33.65;;;16.80;99.90;;;;;;5029167;28;20049;-71
2023/09/27 08:02:18;;;;;;;35.58;32.28;;;17.00;99.90;;;;;;5027841;28;20042;-72
2023/09/27 08:04:44;;;;;;;28.95;26.17;;;17.10;99.90;;;;;;5060950;28;20041;-72
2023/09/27 08:07:11;;;;;;;32.65;29.45;;;17.30;99.90;;;;;;5029633;28;20026;-72
2023/09/27 08:09:38;;;;;;;51.65;48.40;;;17.30;99.90;;;;;;5032138;28;20048;-72
2023/09/27 08:12:05;;;;;;;32.90;30.38;;;17.30;99.90;;;;;;5023667;28;20048;-72
2023/09/27 08:14:37;;;;;;;40.85;37.88;;;17.40;99.90;;;;;;5029861;28;20058;-72
2023/09/27 08:17:04;;;;;;;46.80;43.58;;;17.50;99.90;;;;;;5024790;28;20040;-72
2023/09/27 08:19:31;;;;;;;57.42;53.95;;;17.50;99.90;;;;;;5023368;28;20033;-72
2023/09/27 08:21:58;;;;;;;47.83;44.55;;;17.50;99.90;;;;;;5021904;28;20041;-72
2023/09/27 08:24:24;;;;;;;47.38;44.47;;;17.50;99.90;;;;;;5030869;28;20042;-72
2023/09/27 08:26:50;;;;;;;51.97;48.95;;;17.60;99.90;;;;;;5029612;28;20387;-72
2023/09/27 08:29:18;;;;;;;54.40;51.10;;;17.60;99.90;;;;;;5022668;28;20033;-72
2023/09/27 08:31:44;;;;;;;37.53;34.80;;;17.80;99.90;;;;;;5032005;28;20404;-70
2023/09/27 08:34:10;;;;;;;49.53;46.42;;;18.00;99.90;;;;;;5031572;28;20389;-72
2023/09/27 08:36:37;;;;;;;35.42;32.85;;;18.20;99.90;;;;;;5030893;28;20036;-72
2023/09/27 08:39:04;;;;;;;60.08;56.15;;;18.40;99.90;;;;;;5031400;28;20069;-73
2023/09/27 08:41:30;;;;;;;24.95;23.10;;;18.40;99.90;;;;;;5025995;28;20048;-72
2023/09/27 08:43:57;;;;;;;58.92;55.40;;;18.40;99.90;;;;;;5028286;28;20053;-72
2023/09/27 08:46:23;;;;;;;61.85;58.08;;;18.40;99.90;;;;;;5032065;28;20037;-73
2023/09/27 08:48:51;;;;;;;77.30;72.50;;;18.50;99.90;;;;;;5000747;28;20041;-73
2023/09/27 08:51:18;;;;;;;65.13;61.42;;;18.60;99.90;;;;;;5014784;28;20045;-73
2023/09/27 08:53:44;;;;;;;52.75;49.38;;;18.60;99.90;;;;;;5033127;28;20034;-72
2023/09/27 08:56:12;;;;;;;60.30;56.78;;;18.60;99.90;;;;;;5033995;28;20053;-73
2023/09/27 08:58:38;;;;;;;53.33;50.30;;;18.60;99.90;;;;;;5033045;28;20052;-73
2023/09/27 09:01:07;;;;;;;59.58;56.05;;;18.60;99.90;;;;;;5032218;28;20036;-70
2023/09/27 09:03:33;;;;;;;48.85;46.17;;;18.70;99.90;;;;;;5033109;28;20827;-73
2023/09/27 09:06:00;;;;;;;38.72;36.03;;;18.80;99.90;;;;;;5032607;28;20045;-73
2023/09/27 09:08:26;;;;;;;35.65;33.17;;;19.00;99.90;;;;;;5030779;28;20022;-72
2023/09/27 09:10:54;;;;;;;45.40;42.45;;;19.20;99.90;;;;;;5033400;28;20109;-72
2023/09/27 09:13:22;;;;;;;40.80;38.03;;;19.40;99.90;;;;;;5029994;28;20021;-71
2023/09/27 09:15:49;;;;;;;63.38;59.63;;;19.60;99.90;;;;;;5048036;28;20041;-72
2023/09/27 09:18:39;;;;;;;50.67;47.67;;;19.70;99.90;;;;;;5031842;28;20511;-71
2023/09/27 09:21:08;;;;;;;52.83;49.42;;;19.80;99.90;;;;;;5031752;28;20368;-70
2023/09/27 09:23:36;;;;;;;63.40;59.67;;;19.90;99.90;;;;;;5033247;28;20033;-71
2023/09/27 09:26:06;;;;;;;70.63;66.32;;;20.00;99.90;;;;;;5032095;28;20042;-71
2023/09/27 09:28:32;;;;;;;76.97;72.70;;;20.10;99.90;;;;;;5034299;28;20048;-71
2023/09/27 09:30:58;;;;;;;73.13;68.75;;;20.10;99.90;;;;;;5037363;28;20056;-72
2023/09/27 09:33:36;;;;;;;68.72;64.88;;;20.10;99.90;;;;;;5033561;28;20049;-72
2023/09/27 09:36:02;;;;;;;75.07;71.03;;;20.10;99.90;;;;;;5033785;28;20408;-72
2023/09/27 09:38:30;;;;;;;72.72;68.55;;;20.20;99.90;;;;;;5019804;28;20034;-72
2023/09/27 09:41:01;;;;;;;71.93;68.10;;;20.20;99.90;;;;;;5036462;28;20034;-73
2023/09/27 09:43:36;;;;;;;75.07;70.75;;;20.20;99.90;;;;;;5033440;28;20444;-73
2023/09/27 09:46:06;;;;;;;68.15;63.97;;;20.20;99.90;;;;;;5030874;28;20042;-73
2023/09/27 09:48:35;;;;;;;78.15;73.97;;;20.30;99.90;;;;;;5035055;28;20029;-73
2023/09/27 09:51:03;;;;;;;120.30;113.95;;;20.40;99.90;;;;;;5043145;28;20045;-68
2023/09/27 09:53:30;;;;;;;121.63;114.30;;;20.50;99.90;;;;;;5031490;28;20041;-69
2023/09/27 09:55:59;;;;;;;147.43;139.48;;;20.60;99.90;;;;;;5035385;28;20599;-71
2023/09/27 09:58:44;;;;;;;138.05;130.88;;;20.70;99.90;;;;;;5032648;28;20040;-72
2023/09/27 10:01:13;;;;;;;127.50;120.63;;;20.70;99.90;;;;;;5044258;28;20034;-72
2023/09/27 10:03:40;;;;;;;171.10;162.07;;;20.80;99.90;;;;;;5033212;28;20084;-72
2023/09/27 10:06:08;;;;;;;181.18;171.85;;;21.00;99.90;;;;;;5031961;28;20041;-72
2023/09/27 10:08:37;;;;;;;179.15;169.90;;;21.10;99.90;;;;;;5031692;28;20503;-72
2023/09/27 10:11:04;;;;;;;164.48;155.98;;;21.20;99.90;;;;;;5015316;28;20068;-72
2023/09/27 10:13:32;;;;;;;184.80;175.18;;;21.30;99.90;;;;;;5032665;28;20034;-72
2023/09/27 10:15:58;;;;;;;195.00;185.18;;;21.40;99.90;;;;;;5031313;28;20052;-72
2023/09/27 10:18:24;;;;;;;196.32;186.18;;;21.40;99.90;;;;;;5033149;28;20033;-70
2023/09/27 10:21:03;;;;;;;203.18;192.80;;;21.60;99.90;;;;;;5033183;28;20040;-72
2023/09/27 10:23:35;;;;;;;198.32;188.40;;;21.60;99.90;;;;;;5026114;28;20116;-72
2023/09/27 10:26:29;;;;;;;183.23;174.35;;;21.60;99.90;;;;;;5032739;28;20041;-72
2023/09/27 10:29:01;;;;;;;198.43;188.18;;;21.60;99.90;;;;;;5035302;28;20044;-72
2023/09/27 10:31:28;;;;;;;218.43;207.45;;;21.70;99.90;;;;;;5030575;28;20044;-72
2023/09/27 10:33:55;;;;;;;219.00;208.43;;;21.70;99.90;;;;;;5030071;28;20049;-72
2023/09/27 10:36:21;;;;;;;249.50;237.52;;;21.80;99.90;;;;;;5032195;28;20053;-72
2023/09/27 10:38:50;;;;;;;259.77;247.23;;;21.90;99.90;;;;;;5032636;28;20472;-72
2023/09/27 10:41:44;;;;;;;266.45;253.73;;;22.10;99.90;;;;;;5031417;28;20056;-71
2023/09/27 10:44:11;;;;;;;276.17;263.02;;;22.20;99.90;;;;;;5029181;28;20041;-72
2023/09/27 10:46:48;;;;;;;302.92;288.20;;;22.20;99.90;;;;;;5027055;28;20037;-71
2023/09/27 10:49:24;;;;;;;309.63;294.67;;;22.40;99.90;;;;;;5031411;28;20050;-72
2023/09/27 10:51:51;;;;;;;348.60;331.40;;;22.50;99.90;;;;;;5029248;28;20041;-72
2023/09/27 10:54:24;;;;;;;339.95;323.42;;;22.70;99.90;;;;;;5031659;28;20038;-72
2023/09/27 10:56:55;;;;;;;339.58;322.73;;;22.70;99.90;;;;;;5030706;28;20049;-72
2023/09/27 10:59:26;;;;;;;362.90;344.67;;;22.60;99.90;;;;;;5029267;28;20025;-71
2023/09/27 11:01:52;;;;;;;341.83;324.92;;;22.60;99.90;;;;;;5029312;28;20034;-71
2023/09/27 11:04:25;;;;;;;380.17;360.92;;;22.70;99.90;;;;;;5032159;28;20384;-72
2023/09/27 11:06:51;;;;;;;356.17;338.30;;;22.70;99.90;;;;;;5031955;28;20025;-72
2023/09/27 11:09:20;;;;;;;342.27;325.15;;;22.80;99.90;;;;;;5032109;28;20033;-72
2023/09/27 11:11:50;;;;;;;346.42;328.80;;;22.80;99.90;;;;;;5029000;28;20037;-71
2023/09/27 11:14:33;;;;;;;331.35;314.75;;;22.80;99.90;;;;;;5029380;28;20046;-72
2023/09/27 11:17:22;;;;;;;330.50;313.85;;;22.90;99.90;;;;;;5034260;28;20041;-72
2023/09/27 11:19:49;;;;;;;337.88;320.77;;;22.90;99.90;;;;;;5030116;28;20029;-71
2023/09/27 11:22:28;;;;;;;332.70;316.08;;;22.90;99.90;;;;;;5031347;28;20029;-72
2023/09/27 11:24:54;;;;;;;327.55;311.30;;;22.90;99.90;;;;;;5031537;28;20060;-71
2023/09/27 11:27:20;;;;;;;344.70;327.48;;;22.90;99.90;;;;;;5031034;28;20080;-72
2023/09/27 11:29:53;;;;;;;303.60;288.15;;;22.90;99.90;;;;;;5031804;28;20472;-71
2023/09/27 11:32:19;;;;;;;318.33;302.52;;;22.90;99.90;;;;;;5030301;28;20041;-72
2023/09/27 11:34:58;;;;;;;324.67;307.38;;;22.90;99.90;;;;;;5030395;28;20045;-72
2023/09/27 11:37:25;;;;;;;311.35;295.42;;;22.90;99.90;;;;;;5031026;28;20052;-72
2023/09/27 11:39:55;;;;;;;324.40;307.60;;;23.00;99.90;;;;;;5031359;28;20396;-72
2023/09/27 11:42:21;;;;;;;327.17;309.67;;;23.10;99.90;;;;;;5027615;28;20049;-72
2023/09/27 11:45:20;;;;;;;327.55;310.33;;;23.10;99.90;;;;;;5028981;28;20797;-72
2023/09/27 11:47:50;;;;;;;328.83;311.55;;;23.10;99.90;;;;;;4966537;28;20461;-71
2023/09/27 11:50:17;;;;;;;273.30;259.80;;;23.10;99.90;;;;;;4969132;28;20394;-72
2023/09/27 11:52:43;;;;;;;316.58;299.92;;;23.10;99.90;;;;;;4969888;28;20051;-72
2023/09/27 11:55:10;;;;;;;266.08;253.00;;;23.00;99.90;;;;;;4969478;28;20037;-72
2023/09/27 11:57:37;;;;;;;298.02;282.38;;;23.00;99.90;;;;;;4969492;28;20190;-72
2023/09/27 12:00:06;;;;;;;312.80;296.13;;;22.90;99.90;;;;;;4953630;28;20504;-71
2023/09/27 12:02:35;;;;;;;264.15;250.50;;;22.90;99.90;;;;;;4968820;28;20045;-72
2023/09/27 12:05:01;;;;;;;278.58;263.90;;;23.00;99.90;;;;;;4968432;28;20050;-72
2023/09/27 12:07:27;;;;;;;278.92;264.40;;;23.00;99.90;;;;;;4969455;28;20030;-72
2023/09/27 12:09:54;;;;;;;302.02;286.08;;;23.00;99.90;;;;;;4970125;28;20143;-72
2023/09/27 12:12:20;;;;;;;240.10;228.00;;;23.00;99.90;;;;;;4969948;28;20047;-72
2023/09/27 12:14:46;;;;;;;254.18;240.40;;;23.00;99.90;;;;;;4969227;28;20043;-72
2023/09/27 12:17:12;;;;;;;259.02;245.63;;;23.00;99.90;;;;;;4968920;28;20039;-72
2023/09/27 12:19:39;;;;;;;260.23;246.75;;;23.10;99.90;;;;;;4973739;28;20039;-72
2023/09/27 12:22:05;;;;;;;287.85;272.60;;;23.10;99.90;;;;;;4973505;28;20042;-72
2023/09/27 12:24:31;;;;;;;260.85;247.20;;;23.20;99.90;;;;;;5026748;28;20048;-72
2023/09/27 12:26:57;;;;;;;280.08;265.83;;;23.30;99.90;;;;;;5033388;28;20052;-72